Time;durP1;ratioP1;P1;durP2;ratioP2;P2;SDS_P1;SDS_P2;PMS_P1;PMS_P2;Temp;Humidity;BMP_temperature;BMP_pressure;BME280_temperature;BME280_humidity;BME280_pressure;Samples;Min_cycle;Max_cycle;Signal;HPM_P1;HPM_P2
2022/05/29 00:02:20;;;;;;;8.60;3.20;;;;;;;9.57;78.42;99823.41;106306;1276;22575;-79
2022/05/29 00:04:47;;;;;;;6.80;2.60;;;;;;;9.57;78.55;99826.94;106337;1276;24330;-84
2022/05/29 00:07:17;;;;;;;5.50;2.90;;;;;;;9.57;78.58;99827.98;106342;1270;22528;-83
2022/05/29 00:09:47;;;;;;;4.90;2.80;;;;;;;9.58;78.71;99826.20;106235;1273;22548;-84
2022/05/29 00:12:17;;;;;;;6.10;3.60;;;;;;;9.55;78.66;99826.96;106220;1273;24225;-83
2022/05/29 00:14:45;;;;;;;5.20;3.10;;;;;;;9.57;78.98;99825.36;106396;1270;22989;-83
2022/05/29 00:17:12;;;;;;;7.70;3.10;;;;;;;9.61;79.15;99825.13;106167;1271;22860;-84
2022/05/29 00:19:39;;;;;;;7.80;2.80;;;;;;;9.67;79.01;99826.80;106140;1273;25518;-82
2022/05/29 00:22:07;;;;;;;4.90;3.10;;;;;;;9.69;78.86;99828.86;105993;1273;22681;-81
2022/05/29 00:24:35;;;;;;;6.10;3.00;;;;;;;9.71;78.74;99826.73;105958;1273;24941;-81
2022/05/29 00:27:03;;;;;;;6.90;3.30;;;;;;;9.72;78.68;99827.42;106175;1270;22541;-82
2022/05/29 00:29:29;;;;;;;6.50;3.50;;;;;;;9.72;78.57;99825.50;106401;1270;22537;-81
2022/05/29 00:31:57;;;;;;;5.10;2.90;;;;;;;9.68;78.63;99826.41;106017;1271;22538;-81
2022/05/29 00:34:23;;;;;;;4.00;2.90;;;;;;;9.68;78.66;99824.33;106069;1273;22700;-82
2022/05/29 00:36:50;;;;;;;6.00;3.00;;;;;;;9.68;78.75;99828.52;106206;1270;25228;-84
2022/05/29 00:39:17;;;;;;;6.00;3.50;;;;;;;9.68;78.56;99831.01;106249;1270;25325;-86
2022/05/29 00:41:45;;;;;;;5.20;3.50;;;;;;;9.64;78.80;99831.23;106174;1270;25573;-84
2022/05/29 00:44:27;;;;;;;5.00;2.90;;;;;;;9.68;78.91;99831.88;106374;1270;25595;-85
2022/05/29 00:47:19;;;;;;;5.60;2.70;;;;;;;9.65;78.82;99837.55;106192;1273;24318;-83
2022/05/29 00:49:49;;;;;;;4.10;2.90;;;;;;;9.67;78.81;99833.83;106263;1270;22536;-83
2022/05/29 00:52:18;;;;;;;7.40;3.30;;;;;;;9.66;78.62;99840.35;106283;1270;22601;-83
2022/05/29 00:54:55;;;;;;;6.90;3.00;;;;;;;9.64;78.87;99838.95;106072;1270;23016;-84
2022/05/29 00:57:29;;;;;;;5.10;2.70;;;;;;;9.62;78.92;99835.13;106386;1270;24416;-83
2022/05/29 01:00:00;;;;;;;3.80;2.70;;;;;;;9.58;78.77;99837.28;106356;1271;25354;-84
2022/05/29 01:02:27;;;;;;;4.20;2.90;;;;;;;9.58;78.97;99836.23;106511;1271;24219;-83
2022/05/29 01:04:56;;;;;;;5.50;3.20;;;;;;;9.60;78.95;99836.55;106412;1270;22527;-82
2022/05/29 01:07:25;;;;;;;4.80;2.50;;;;;;;9.59;78.90;99830.08;105959;1273;22540;-85
2022/05/29 01:09:53;;;;;;;7.70;2.60;;;;;;;9.58;78.97;99826.39;106154;1273;25552;-83
2022/05/29 01:12:36;;;;;;;3.70;2.40;;;;;;;9.62;79.07;99826.34;106243;1271;24829;-83
2022/05/29 01:15:03;;;;;;;6.20;2.80;;;;;;;9.66;78.97;99824.19;106269;1272;22483;-81
2022/05/29 01:17:40;;;;;;;3.70;2.70;;;;;;;9.67;78.88;99822.21;106070;1273;22851;-82
2022/05/29 01:20:27;;;;;;;7.20;2.80;;;;;;;9.67;78.78;99821.52;106145;1271;22549;-84
2022/05/29 01:23:32;;;;;;;4.60;2.70;;;;;;;9.66;78.88;99825.05;106297;1270;22721;-83
2022/05/29 01:26:24;;;;;;;5.70;2.60;;;;;;;9.63;78.86;99826.68;106284;1270;25243;-82
2022/05/29 01:28:53;;;;;;;6.60;2.70;;;;;;;9.67;78.93;99823.27;106280;1270;22870;-82
2022/05/29 01:31:38;;;;;;;3.70;2.40;;;;;;;9.70;78.90;99826.58;106174;1271;24248;-81
2022/05/29 01:34:50;;;;;;;5.80;2.80;;;;;;;9.71;78.61;99833.24;106377;1270;24266;-82
2022/05/29 01:37:31;;;;;;;4.10;2.40;;;;;;;9.71;78.68;99841.33;106332;1270;25652;-83
2022/05/29 01:40:04;;;;;;;4.30;2.50;;;;;;;9.70;78.41;99835.38;106193;1270;25250;-83
2022/05/29 01:42:45;;;;;;;4.10;2.80;;;;;;;9.69;78.48;99834.33;106211;1271;25252;-82
2022/05/29 01:45:29;;;;;;;3.40;2.10;;;;;;;9.73;78.49;99836.02;106147;1272;24356;-82
2022/05/29 01:48:07;;;;;;;4.00;2.20;;;;;;;9.67;78.09;99833.11;106211;1272;22652;-85
2022/05/29 01:50:44;;;;;;;2.50;2.00;;;;;;;9.64;78.29;99832.30;106158;1272;22783;-82
2022/05/29 01:53:20;;;;;;;4.60;2.10;;;;;;;9.62;78.25;99831.62;106185;1273;24056;-80
2022/05/29 01:55:52;;;;;;;5.10;2.20;;;;;;;9.63;78.26;99831.08;106287;1270;22539;-85
2022/05/29 01:58:29;;;;;;;3.20;1.80;;;;;;;9.62;78.26;99829.32;106225;1271;22525;-85
2022/05/29 02:01:01;;;;;;;5.60;2.10;;;;;;;9.60;78.05;99825.30;106249;1270;25226;-82
2022/05/29 02:03:34;;;;;;;3.90;2.40;;;;;;;9.56;77.99;99824.66;106364;1270;25344;-80
2022/05/29 02:06:14;;;;;;;5.10;1.90;;;;;;;9.52;78.17;99816.80;106468;1270;24309;-80
2022/05/29 02:08:52;;;;;;;4.40;2.10;;;;;;;9.53;77.93;99821.54;106270;1271;25411;-83
2022/05/29 02:11:28;;;;;;;4.70;1.70;;;;;;;9.51;78.02;99822.09;106321;1271;25342;-80
2022/05/29 02:14:07;;;;;;;2.20;1.90;;;;;;;9.51;78.03;99826.13;106348;1270;25240;-80
2022/05/29 02:16:46;;;;;;;5.00;1.90;;;;;;;9.52;78.19;99830.52;106339;1271;24326;-84
2022/05/29 02:19:28;;;;;;;4.40;1.80;;;;;;;9.56;78.01;99831.34;106290;1270;22554;-84
2022/05/29 02:22:02;;;;;;;3.00;2.00;;;;;;;9.57;77.81;99833.44;106359;1270;25402;-83
2022/05/29 02:24:34;;;;;;;4.40;2.20;;;;;;;9.56;77.81;99830.99;106233;1273;22532;-82
2022/05/29 02:27:40;;;;;;;1.90;1.70;;;;;;;9.54;77.92;99825.56;106154;1277;23955;-83
2022/05/29 02:30:08;;;;;;;3.10;1.70;;;;;;;9.56;77.92;99826.77;106024;1275;22543;-85
2022/05/29 02:32:52;;;;;;;4.10;2.10;;;;;;;9.58;77.91;99826.23;106022;1277;22544;-83
2022/05/29 02:35:33;;;;;;;3.60;2.10;;;;;;;9.56;77.96;99825.52;106028;1277;24456;-81
2022/05/29 02:38:10;;;;;;;3.40;2.00;;;;;;;9.52;78.14;99827.88;105856;1276;22572;-83
2022/05/29 02:41:03;;;;;;;3.40;2.00;;;;;;;9.53;78.23;99826.46;105887;1277;23937;-81
2022/05/29 02:44:05;;;;;;;3.40;2.00;;;;;;;9.55;78.12;99826.95;105718;1276;24292;-82
2022/05/29 02:46:47;;;;;;;3.40;1.90;;;;;;;9.54;78.12;99824.68;106075;1270;22554;-83
2022/05/29 02:49:39;;;;;;;4.30;2.00;;;;;;;9.54;78.25;99828.55;106093;1272;22723;-83
2022/05/29 02:52:15;;;;;;;3.80;1.70;;;;;;;9.54;78.35;99825.73;106088;1271;25295;-84
2022/05/29 02:54:42;;;;;;;3.60;1.80;;;;;;;9.54;78.25;99826.96;106161;1270;23962;-82
2022/05/29 02:57:10;;;;;;;4.00;1.70;;;;;;;9.55;78.26;99823.98;106192;1270;22541;-82
2022/05/29 02:59:47;;;;;;;6.50;2.00;;;;;;;9.58;78.22;99825.16;106029;1273;24426;-84
2022/05/29 03:02:57;;;;;;;3.00;1.90;;;;;;;9.59;78.28;99829.72;106223;1272;25237;-83
2022/05/29 03:05:28;;;;;;;4.40;2.30;;;;;;;9.58;78.19;99832.17;106128;1271;22718;-84
2022/05/29 03:08:18;;;;;;;3.00;1.90;;;;;;;9.57;78.18;99834.65;106200;1272;22671;-83
2022/05/29 03:10:55;;;;;;;3.70;2.10;;;;;;;9.59;78.21;99837.27;106087;1272;25489;-84
2022/05/29 03:13:48;;;;;;;4.70;1.70;;;;;;;9.64;78.44;99845.99;106031;1273;24293;-84
2022/05/29 03:16:32;;;;;;;4.60;2.10;;;;;;;9.73;78.32;99847.29;106127;1271;22540;-83
2022/05/29 03:19:12;;;;;;;3.20;2.20;;;;;;;9.75;78.15;99851.98;106257;1270;22870;-81
2022/05/29 03:21:48;;;;;;;3.60;2.60;;;;;;;9.76;78.00;99855.49;106213;1270;22569;-84
2022/05/29 03:24:20;;;;;;;4.80;1.80;;;;;;;9.78;78.09;99852.13;106181;1273;22542;-83
2022/05/29 03:26:56;;;;;;;3.30;2.30;;;;;;;9.78;77.85;99855.82;106325;1270;22705;-83
2022/05/29 03:29:33;;;;;;;6.90;2.40;;;;;;;9.77;77.96;99857.77;106374;1271;25406;-84
2022/05/29 03:32:01;;;;;;;6.00;2.30;;;;;;;9.79;78.07;99859.33;106263;1272;22556;-81
2022/05/29 03:34:28;;;;;;;3.20;2.00;;;;;;;9.79;78.11;99860.55;106661;1271;25297;-81
2022/05/29 03:36:55;;;;;;;5.80;2.30;;;;;;;9.81;78.15;99859.65;106629;1270;22631;-85
2022/05/29 03:39:22;;;;;;;8.00;2.50;;;;;;;9.80;77.99;99861.95;106661;1270;22528;-85
2022/05/29 03:41:52;;;;;;;4.70;2.40;;;;;;;9.82;78.08;99853.13;106829;1273;22545;-81
2022/05/29 03:44:22;;;;;;;6.00;2.80;;;;;;;9.87;78.00;99857.98;106396;1272;22684;-84
2022/05/29 03:46:49;;;;;;;5.00;2.10;;;;;;;9.89;77.90;99856.36;106258;1271;26508;-86
2022/05/29 03:49:20;;;;;;;4.50;2.60;;;;;;;9.89;77.78;99853.89;106366;1271;22530;-80
2022/05/29 03:51:47;;;;;;;3.50;2.20;;;;;;;9.93;77.95;99855.24;106278;1271;25255;-80
2022/05/29 03:54:15;;;;;;;5.40;2.50;;;;;;;10.02;77.99;99854.41;106052;1272;24225;-80
2022/05/29 03:56:42;;;;;;;2.90;1.80;;;;;;;10.02;77.72;99854.94;106058;1275;22563;-82
2022/05/29 03:59:09;;;;;;;5.20;2.30;;;;;;;10.00;77.57;99851.80;106217;1273;22550;-79
2022/05/29 04:01:36;;;;;;;6.90;2.70;;;;;;;10.04;77.55;99860.02;106180;1271;24832;-81
2022/05/29 04:04:04;;;;;;;4.40;2.20;;;;;;;10.06;77.52;99863.50;106230;1271;22775;-83
2022/05/29 04:06:34;;;;;;;7.50;3.20;;;;;;;10.08;77.42;99867.87;106597;1270;22871;-82
2022/05/29 04:12:03;;;;;;;6.20;2.60;;;;;;;10.18;77.43;99869.84;106481;1270;25229;-83
2022/05/29 04:14:39;;;;;;;2.30;1.60;;;;;;;10.22;77.37;99872.04;106470;1271;22534;-84
2022/05/29 04:17:11;;;;;;;;;;;;;;;10.25;77.16;99869.55;106427;1270;22521;-86
2022/05/29 04:19:39;;;;;;;5.00;2.60;;;;;;;10.28;77.17;99876.36;106358;1274;22535;-83
2022/05/29 04:22:21;;;;;;;4.40;2.10;;;;;;;10.25;76.94;99881.86;106675;1270;25239;-82
2022/05/29 04:24:48;;;;;;;4.60;2.20;;;;;;;10.23;76.96;99884.34;106398;1273;22530;-84
2022/05/29 04:27:16;;;;;;;4.50;1.90;;;;;;;10.21;76.82;99887.91;106286;1273;22557;-83
2022/05/29 04:29:43;;;;;;;5.20;2.30;;;;;;;10.16;76.81;99887.63;106205;1273;25387;-82
2022/05/29 04:34:58;;;;;;;5.70;3.00;;;;;;;10.12;76.93;99885.06;106266;1273;26495;-81
2022/05/29 04:37:27;;;;;;;5.60;2.50;;;;;;;10.10;76.97;99888.26;106131;1273;22547;-82
2022/05/29 04:39:55;;;;;;;5.50;2.70;;;;;;;10.10;77.18;99891.42;106202;1273;22568;-83
2022/05/29 04:42:22;;;;;;;5.20;2.20;;;;;;;10.10;77.07;99891.59;106127;1273;25411;-83
2022/05/29 04:44:49;;;;;;;5.90;2.70;;;;;;;10.16;77.20;99889.56;106179;1275;22618;-83
2022/05/29 04:47:16;;;;;;;4.50;2.00;;;;;;;10.20;77.15;99893.72;106084;1273;24266;-84
2022/05/29 04:49:44;;;;;;;4.20;1.90;;;;;;;10.21;76.92;99893.36;106065;1272;22555;-82
2022/05/29 04:52:11;;;;;;;4.00;2.30;;;;;;;10.18;76.76;99896.05;106173;1274;22905;-81
2022/05/29 04:54:40;;;;;;;4.10;2.10;;;;;;;10.18;76.88;99891.82;106143;1273;22533;-81
2022/05/29 04:57:09;;;;;;;5.10;2.20;;;;;;;10.22;76.94;99891.59;106147;1273;23007;-83
2022/05/29 04:59:37;;;;;;;3.30;2.20;;;;;;;10.23;77.02;99891.21;106025;1273;22531;-82
2022/05/29 05:02:04;;;;;;;6.70;2.70;;;;;;;10.27;76.87;99893.27;106007;1273;24217;-83
2022/05/29 05:04:31;;;;;;;4.70;2.20;;;;;;;10.30;76.84;99894.80;106037;1273;22707;-84
2022/05/29 05:06:59;;;;;;;5.00;2.00;;;;;;;10.37;76.79;99891.52;106168;1273;22536;-84
2022/05/29 05:09:28;;;;;;;4.50;2.60;;;;;;;10.43;76.63;99887.55;106127;1273;22546;-83
2022/05/29 05:11:56;;;;;;;7.70;2.60;;;;;;;10.47;76.46;99890.16;106002;1273;24394;-82
2022/05/29 05:14:27;;;;;;;7.20;2.90;;;;;;;10.50;76.41;99893.11;106106;1274;22553;-83
2022/05/29 05:16:54;;;;;;;9.00;2.60;;;;;;;10.56;76.32;99887.91;106167;1275;24136;-84
2022/05/29 05:19:22;;;;;;;4.30;2.60;;;;;;;10.59;76.00;99888.56;106199;1273;22553;-84
2022/05/29 05:21:50;;;;;;;4.30;2.30;;;;;;;10.61;76.01;99888.52;106028;1273;24080;-82
2022/05/29 05:24:18;;;;;;;6.60;3.10;;;;;;;10.66;76.07;99887.55;106240;1270;22725;-81
2022/05/29 05:26:46;;;;;;;4.40;2.70;;;;;;;10.73;75.82;99890.95;106268;1271;24297;-84
2022/05/29 05:29:14;;;;;;;4.60;2.70;;;;;;;10.70;75.32;99892.23;106055;1273;25524;-82
2022/05/29 05:31:41;;;;;;;8.40;2.50;;;;;;;10.61;75.28;99892.22;106071;1273;22596;-82
2022/05/29 05:34:08;;;;;;;4.90;3.10;;;;;;;10.59;75.43;99892.08;106175;1271;24788;-83
2022/05/29 05:36:35;;;;;;;4.30;3.30;;;;;;;10.63;75.47;99901.15;106232;1273;22510;-81
2022/05/29 05:39:03;;;;;;;7.00;3.60;;;;;;;10.69;75.01;99906.36;106283;1271;23832;-85
2022/05/29 05:41:30;;;;;;;4.70;3.30;;;;;;;10.71;74.78;99902.45;106402;1272;22530;-83
2022/05/29 05:43:57;;;;;;;5.00;2.80;;;;;;;10.73;74.73;99898.35;105979;1271;22535;-81
2022/05/29 05:46:24;;;;;;;5.60;3.60;;;;;;;10.79;74.31;99898.76;106138;1274;22531;-81
2022/05/29 05:48:51;;;;;;;6.60;4.60;;;;;;;10.81;73.99;99899.61;106234;1271;22533;-82
2022/05/29 05:51:18;;;;;;;7.00;4.80;;;;;;;10.85;74.25;99904.30;106227;1271;24370;-82
2022/05/29 05:53:46;;;;;;;8.50;5.40;;;;;;;10.91;73.94;99905.44;106202;1271;25379;-82
2022/05/29 05:56:16;;;;;;;10.40;3.80;;;;;;;10.95;73.99;99907.48;106278;1273;23051;-83
2022/05/29 05:58:44;;;;;;;7.00;4.20;;;;;;;10.98;73.86;99911.65;106150;1272;26676;-84
2022/05/29 06:01:14;;;;;;;8.60;4.20;;;;;;;11.02;73.48;99913.49;106273;1270;24273;-82
2022/05/29 06:03:42;;;;;;;8.00;4.70;;;;;;;11.03;73.27;99918.79;106481;1270;22530;-82
2022/05/29 06:06:10;;;;;;;5.70;4.10;;;;;;;11.02;73.00;99921.60;106270;1271;22845;-85
2022/05/29 06:08:36;;;;;;;7.30;4.10;;;;;;;11.01;73.00;99919.88;106305;1271;25280;-82
2022/05/29 06:11:03;;;;;;;5.60;4.10;;;;;;;11.02;73.04;99920.90;106525;1270;23071;-83
2022/05/29 06:13:30;;;;;;;9.10;4.10;;;;;;;11.10;73.17;99919.52;106516;1271;23985;-84
2022/05/29 06:16:02;;;;;;;7.20;3.70;;;;;;;11.15;72.81;99916.45;106396;1273;26580;-83
2022/05/29 06:18:29;;;;;;;7.80;3.40;;;;;;;11.18;72.67;99920.61;106402;1271;22547;-82
2022/05/29 06:20:58;;;;;;;9.10;4.80;;;;;;;11.19;72.34;99911.95;106125;1273;23926;-84
2022/05/29 06:23:27;;;;;;;6.80;4.90;;;;;;;11.20;72.41;99919.70;106205;1271;24227;-83
2022/05/29 06:25:54;;;;;;;7.10;3.40;;;;;;;11.27;72.23;99917.27;106138;1272;22546;-82
2022/05/29 06:28:21;;;;;;;7.90;3.90;;;;;;;11.34;72.08;99921.20;106193;1271;22552;-83
2022/05/29 06:30:48;;;;;;;6.70;3.50;;;;;;;11.40;71.92;99930.06;106080;1272;25214;-83
2022/05/29 06:33:16;;;;;;;5.00;3.70;;;;;;;11.47;71.51;99926.21;106094;1271;22552;-83
2022/05/29 06:35:43;;;;;;;9.30;4.20;;;;;;;11.53;71.54;99933.85;106275;1270;22532;-84
2022/05/29 06:38:10;;;;;;;7.20;3.80;;;;;;;11.62;71.33;99935.79;106326;1271;26282;-84
2022/05/29 06:40:45;;;;;;;7.80;3.50;;;;;;;11.67;71.01;99944.86;106189;1271;24171;-82
2022/05/29 06:43:12;;;;;;;6.70;3.40;;;;;;;11.73;70.61;99944.92;106297;1273;24278;-83
2022/05/29 06:45:39;;;;;;;6.80;3.20;;;;;;;11.74;70.29;99947.02;105918;1278;22522;-82
2022/05/29 06:48:07;;;;;;;7.00;3.70;;;;;;;11.76;70.24;99946.09;105156;1282;24327;-81
2022/05/29 06:50:33;;;;;;;8.00;4.00;;;;;;;11.79;70.16;99950.61;105377;1281;22526;-82
2022/05/29 06:53:00;;;;;;;5.70;3.50;;;;;;;11.85;70.37;99946.42;105444;1281;25431;-83
2022/05/29 06:55:27;;;;;;;6.30;2.70;;;;;;;11.97;70.43;99952.00;105153;1281;22542;-82
2022/05/29 06:57:54;;;;;;;8.30;3.40;;;;;;;12.01;69.61;99952.25;105159;1281;26507;-82
2022/05/29 07:08:47;;;;;;;6.80;3.40;;;;;;;12.41;69.06;99951.22;106301;1271;22534;-81
2022/05/29 07:11:23;;;;;;;8.10;3.60;;;;;;;12.51;68.41;99948.84;105747;1277;22546;-82
2022/05/29 07:13:50;;;;;;;;;;;;;;;12.51;67.90;99957.30;106029;1277;22528;-81
2022/05/29 07:16:17;;;;;;;5.50;2.80;;;;;;;12.43;67.63;99959.64;105844;1278;24021;-83
2022/05/29 07:18:44;;;;;;;10.70;3.30;;;;;;;12.39;67.66;99959.21;105945;1277;24643;-82
2022/05/29 07:21:21;;;;;;;6.40;2.80;;;;;;;12.41;68.06;99961.61;106074;1277;24824;-83
2022/05/29 07:23:48;;;;;;;7.70;2.80;;;;;;;12.42;67.90;99964.63;105865;1277;22536;-84
2022/05/29 07:26:16;;;;;;;8.30;3.00;;;;;;;12.38;67.84;99959.40;105971;1278;22544;-82
2022/05/29 07:28:43;;;;;;;7.70;3.00;;;;;;;12.42;67.71;99964.08;105815;1271;25238;-84
2022/05/29 07:31:11;;;;;;;9.00;3.10;;;;;;;12.44;67.55;99966.85;106319;1274;24483;-83
2022/05/29 07:33:39;;;;;;;4.20;2.50;;;;;;;12.48;67.41;99971.02;106749;1271;24296;-84
2022/05/29 07:36:10;;;;;;;6.90;2.80;;;;;;;12.46;67.39;99972.11;106852;1271;23040;-83
2022/05/29 07:38:39;;;;;;;5.40;2.30;;;;;;;12.50;67.32;99973.61;106207;1271;25255;-84
2022/05/29 07:43:52;;;;;;;4.50;3.00;;;;;;;12.66;66.65;99986.32;105637;1278;24210;-85
2022/05/29 07:46:19;;;;;;;3.80;2.20;;;;;;;12.60;66.14;99981.31;105895;1278;24076;-85
2022/05/29 07:48:46;;;;;;;9.60;3.40;;;;;;;12.59;65.91;99982.58;105954;1277;23944;-85
2022/05/29 07:51:14;;;;;;;5.10;2.90;;;;;;;12.63;66.29;99985.83;105844;1276;24450;-87
2022/05/29 07:53:41;;;;;;;5.50;2.70;;;;;;;12.68;66.18;99982.89;105965;1277;26577;-85
2022/05/29 07:56:08;;;;;;;4.20;2.40;;;;;;;12.74;66.11;99986.45;105827;1277;22560;-83
2022/05/29 07:58:38;;;;;;;7.20;2.70;;;;;;;12.83;66.49;99992.43;105866;1277;23920;-84
2022/05/29 08:01:05;;;;;;;5.90;2.60;;;;;;;12.98;66.20;99989.23;105868;1278;24230;-84
2022/05/29 08:03:32;;;;;;;7.90;2.80;;;;;;;13.06;66.09;99990.95;106287;1274;22628;-83
2022/05/29 08:05:59;;;;;;;7.00;3.00;;;;;;;13.21;65.92;99995.00;106316;1271;24231;-83
2022/05/29 08:08:29;;;;;;;8.30;3.20;;;;;;;13.30;65.89;99996.90;106262;1271;25464;-84
2022/05/29 08:10:56;;;;;;;7.30;2.90;;;;;;;13.41;65.44;99998.01;106350;1271;25841;-82
2022/05/29 08:13:24;;;;;;;8.30;3.10;;;;;;;13.36;64.56;100000.60;105998;1274;22678;-85
2022/05/29 08:15:51;;;;;;;6.50;3.00;;;;;;;13.28;64.66;100004.35;106194;1271;22530;-83
2022/05/29 08:18:18;;;;;;;8.10;3.00;;;;;;;13.27;65.07;100001.04;106170;1271;23913;-87
2022/05/29 08:20:45;;;;;;;8.00;2.50;;;;;;;13.31;65.02;100004.11;106299;1274;23193;-83
2022/05/29 08:23:15;;;;;;;6.00;2.90;;;;;;;13.35;64.44;100001.00;106186;1271;23479;-83
2022/05/29 08:31:14;;;;;;;5.50;2.20;;;;;;;13.63;64.56;99996.54;106084;1274;25274;-82
2022/05/29 08:33:43;;;;;;;9.70;2.30;;;;;;;13.80;64.24;99987.23;106013;1274;25265;-83
2022/05/29 08:36:16;;;;;;;5.70;2.70;;;;;;;14.05;63.41;99999.24;105753;1277;25282;-82
2022/05/29 08:38:46;;;;;;;6.30;2.70;;;;;;;14.20;62.74;99993.84;105831;1276;26574;-83
2022/05/29 08:41:21;;;;;;;9.50;2.20;;;;;;;14.21;61.86;99998.06;105929;1274;25360;-83
2022/05/29 08:44:12;;;;;;;4.20;2.10;;;;;;;14.07;62.16;99998.11;105921;1275;25258;-83
2022/05/29 08:46:52;;;;;;;5.80;2.20;;;;;;;13.94;61.69;99998.34;106038;1274;22548;-84
2022/05/29 08:49:25;;;;;;;6.60;2.40;;;;;;;13.90;62.14;99996.34;105973;1276;26520;-89
2022/05/29 08:51:57;;;;;;;5.60;2.10;;;;;;;14.04;62.26;99995.38;105503;1284;24336;-86
2022/05/29 08:54:42;;;;;;;5.20;2.10;;;;;;;14.26;61.05;100003.56;106004;1276;23346;-84
2022/05/29 08:57:08;;;;;;;4.40;2.20;;;;;;;14.28;59.95;100000.33;105828;1278;22480;-81
2022/05/29 08:59:50;;;;;;;6.30;2.50;;;;;;;14.11;59.98;100001.19;106146;1277;24284;-81
2022/05/29 09:02:32;;;;;;;4.60;2.10;;;;;;;13.92;60.20;99999.79;106020;1277;23014;-85
2022/05/29 09:05:24;;;;;;;5.10;2.50;;;;;;;13.84;60.46;100007.47;105900;1277;25834;-82
2022/05/29 09:07:55;;;;;;;5.30;2.10;;;;;;;13.82;60.66;100006.83;105998;1275;22580;-82
2022/05/29 09:10:35;;;;;;;8.10;2.40;;;;;;;13.82;60.77;100005.03;106061;1273;22608;-84
2022/05/29 09:13:10;;;;;;;4.10;2.30;;;;;;;13.82;60.59;100005.92;106238;1272;25643;-82
2022/05/29 09:15:45;;;;;;;6.10;2.30;;;;;;;13.81;61.01;100005.06;106475;1270;24291;-83
2022/05/29 09:18:23;;;;;;;4.90;1.90;;;;;;;13.80;60.79;100008.47;106359;1270;25249;-85
2022/05/29 09:21:12;;;;;;;4.40;1.90;;;;;;;13.73;60.44;100006.19;106291;1270;22483;-85
2022/05/29 09:24:11;;;;;;;5.60;2.50;;;;;;;13.73;60.56;100003.35;106523;1271;22624;-88
2022/05/29 09:26:44;;;;;;;5.60;2.40;;;;;;;13.80;60.55;100002.79;106479;1270;24354;-87
2022/05/29 09:29:11;;;;;;;5.60;2.40;;;;;;;13.84;60.37;100000.18;106345;1274;22544;-83
2022/05/29 09:31:39;;;;;;;5.50;2.60;;;;;;;13.88;60.27;100003.63;106444;1271;22528;-85
2022/05/29 09:34:06;;;;;;;5.50;2.20;;;;;;;13.96;60.50;100002.34;106391;1271;24458;-83
2022/05/29 09:37:07;;;;;;;8.90;2.80;;;;;;;14.04;60.01;100005.83;106397;1273;25394;-82
2022/05/29 09:39:45;;;;;;;6.00;2.40;;;;;;;14.09;59.26;99999.83;106400;1272;25367;-85
2022/05/29 09:42:24;;;;;;;4.10;2.10;;;;;;;14.15;59.16;100000.91;106420;1273;24353;-83
2022/05/29 09:45:30;;;;;;;8.20;2.30;;;;;;;14.21;59.30;99998.76;106231;1273;22576;-86
2022/05/29 09:50:56;;;;;;;6.00;3.10;;;;;;;14.55;59.61;99998.81;106233;1274;22553;-85
2022/05/29 09:53:28;;;;;;;8.40;2.60;;;;;;;14.75;59.19;100001.16;106134;1274;25258;-86
2022/05/29 09:56:01;;;;;;;5.20;2.20;;;;;;;14.98;58.69;99998.15;106409;1273;25503;-84
2022/05/29 09:58:46;;;;;;;2.60;1.50;;;;;;;15.32;57.39;99998.04;106213;1273;25322;-85
2022/05/29 10:01:30;;;;;;;7.60;2.20;;;;;;;15.41;55.92;100001.45;106195;1271;22530;-84
2022/05/29 10:03:59;;;;;;;2.90;1.60;;;;;;;15.43;55.10;99999.44;106020;1277;24273;-87
2022/05/29 10:06:32;;;;;;;5.00;1.90;;;;;;;15.42;54.28;100001.27;106341;1277;22555;-88
2022/05/29 10:09:10;;;;;;;4.20;1.60;;;;;;;15.56;54.12;100005.39;106066;1277;25360;-83
2022/05/29 10:11:40;;;;;;;5.90;2.10;;;;;;;15.72;54.29;99998.77;106284;1276;22753;-84
2022/05/29 10:14:30;;;;;;;3.90;1.90;;;;;;;15.87;54.16;100001.60;105999;1276;25253;-83
2022/05/29 10:16:57;;;;;;;3.20;1.70;;;;;;;15.89;54.05;100006.30;105994;1277;22478;-82
2022/05/29 10:19:39;;;;;;;4.50;2.20;;;;;;;15.90;53.37;100003.45;105899;1276;22532;-81
2022/05/29 10:22:31;;;;;;;3.20;2.10;;;;;;;15.75;52.87;100002.72;106001;1270;24227;-84
2022/05/29 10:24:59;;;;;;;2.90;1.80;;;;;;;15.83;53.53;100001.04;106327;1273;23963;-83
2022/05/29 10:27:33;;;;;;;4.10;1.50;;;;;;;16.07;53.04;100007.25;106270;1271;22660;-84
2022/05/29 10:30:04;;;;;;;4.30;2.00;;;;;;;16.39;52.44;99997.66;106321;1271;22528;-83
2022/05/29 10:32:36;;;;;;;5.00;1.60;;;;;;;16.71;51.32;100008.69;106681;1271;24395;-80
2022/05/29 10:35:19;;;;;;;3.80;1.60;;;;;;;16.70;50.59;100008.39;106931;1270;23069;-84
2022/05/29 10:37:47;;;;;;;7.60;2.00;;;;;;;16.36;50.52;100012.05;106165;1278;24210;-77
2022/05/29 10:40:33;;;;;;;4.90;1.90;;;;;;;16.04;51.47;100009.70;106088;1277;25375;-82
2022/05/29 10:43:03;;;;;;;6.00;2.30;;;;;;;15.74;53.10;100024.97;106369;1276;22512;-85
2022/05/29 10:45:42;;;;;;;4.50;1.90;;;;;;;15.44;54.44;100027.44;106512;1276;22688;-86
2022/05/29 10:48:42;;;;;;;3.60;2.30;;;;;;;15.07;55.07;100030.83;106875;1276;24375;-84
2022/05/29 10:51:27;;;;;;;6.40;2.20;;;;;;;14.66;56.17;100024.67;105788;1278;25512;-82
2022/05/29 10:54:29;;;;;;;6.80;2.60;;;;;;;14.39;57.44;100026.04;105781;1277;22499;-85
2022/05/29 10:57:14;;;;;;;5.30;2.50;;;;;;;14.15;58.48;100025.50;106176;1271;25350;-80
2022/05/29 11:00:01;;;;;;;6.40;2.20;;;;;;;13.98;59.50;100024.76;106314;1270;22550;-81
2022/05/29 11:05:53;;;;;;;6.30;2.40;;;;;;;13.93;61.49;100016.41;105848;1277;24282;-82
2022/05/29 11:08:39;;;;;;;4.10;2.00;;;;;;;13.88;62.02;100011.42;105926;1276;24248;-90
2022/05/29 11:11:32;;;;;;;5.90;2.50;;;;;;;13.89;62.47;100014.05;105994;1276;23966;-81
2022/05/29 11:14:19;;;;;;;2.70;1.90;;;;;;;13.98;62.85;100013.45;106883;1276;22564;-91
2022/05/29 11:17:23;;;;;;;5.00;2.20;;;;;;;14.17;63.33;100013.04;106437;1276;25250;-82
2022/05/29 11:19:55;;;;;;;6.30;2.60;;;;;;;14.21;62.61;100014.38;105686;1276;25457;-85
2022/05/29 11:22:50;;;;;;;6.60;2.90;;;;;;;14.38;63.53;100017.39;105960;1276;22856;-85
2022/05/29 11:25:26;;;;;;;8.10;2.70;;;;;;;14.70;63.85;100013.19;106011;1276;22501;-85
2022/05/29 11:27:59;;;;;;;;;;;;;;;14.87;62.52;100018.00;105972;1276;25281;-83
2022/05/29 11:30:33;;;;;;;5.10;2.20;;;;;;;14.92;61.90;100019.45;106018;1276;22925;-82
2022/05/29 11:33:32;;;;;;;7.10;2.30;;;;;;;14.93;61.39;100019.58;106025;1276;26498;-83
2022/05/29 11:36:21;;;;;;;6.90;2.60;;;;;;;14.99;61.83;100017.44;105965;1275;25374;-82
2022/05/29 11:39:00;;;;;;;5.50;2.70;;;;;;;15.04;61.83;100017.61;105904;1276;298313;-82
2022/05/29 11:41:43;;;;;;;6.70;2.60;;;;;;;15.10;61.34;100012.09;106172;1276;22527;-82
2022/05/29 11:44:19;;;;;;;6.10;2.80;;;;;;;15.16;60.78;100006.08;106361;1270;22549;-84
2022/05/29 11:52:37;;;;;;;6.30;2.00;;;;;;;15.54;58.78;100003.84;106372;1274;24248;-81
2022/05/29 11:55:15;;;;;;;7.30;2.40;;;;;;;15.63;58.04;99991.64;106370;1274;26454;-80
2022/05/29 11:58:13;;;;;;;5.70;2.60;;;;;;;15.79;57.64;99986.95;106445;1276;25362;-83
2022/05/29 12:01:02;;;;;;;4.50;1.90;;;;;;;15.88;58.17;99991.77;106317;1274;25329;-82
2022/05/29 12:04:08;;;;;;;7.00;2.00;;;;;;;15.89;57.10;99988.38;106216;1275;22541;-79
2022/05/29 12:06:41;;;;;;;5.90;2.20;;;;;;;16.31;56.84;99981.30;106332;1270;22537;-82
2022/05/29 12:09:23;;;;;;;7.00;1.80;;;;;;;16.59;55.73;99978.41;107296;1273;22538;-79
2022/05/29 12:12:15;;;;;;;4.90;2.10;;;;;;;16.86;55.25;99974.27;106501;1271;22649;-80
2022/05/29 12:14:59;;;;;;;5.60;1.80;;;;;;;17.24;54.35;99970.77;106401;1270;22657;-81
2022/05/29 12:17:39;;;;;;;4.70;1.90;;;;;;;17.59;53.34;99963.37;106164;1273;24232;-83
2022/05/29 12:20:09;;;;;;;4.70;1.90;;;;;;;17.90;52.16;99956.42;106313;1271;25474;-81
2022/05/29 12:22:47;;;;;;;4.90;1.90;;;;;;;18.15;51.76;99957.60;106411;1270;25449;-87
2022/05/29 12:25:20;;;;;;;3.20;2.00;;;;;;;18.51;50.73;99959.63;106106;1272;22557;-85
2022/05/29 12:27:49;;;;;;;5.90;1.70;;;;;;;18.71;49.19;99960.77;106494;1271;24330;-81
2022/05/29 12:30:35;;;;;;;3.90;2.00;;;;;;;18.92;49.04;99954.75;106237;1271;22534;-82
2022/05/29 12:33:12;;;;;;;4.20;1.90;;;;;;;19.16;47.35;99949.27;106600;1270;23959;-83
2022/05/29 12:35:50;;;;;;;2.70;1.20;;;;;;;19.29;47.02;99944.48;106380;1271;24331;-81